Aérodrome :
LOGIN :

S'inscrire | Disclaimer

   EN    FR    IT 

 










Légende :    VFR   VFR Marginal   IFR   IFR Intensif   IFR Très Intensif
Visi : 
Plafond : 
>= 8 km
>= 3000ft
5 à 8 km
1000 à 3000 ft
1500m à 5 km
500 à 1000 ft
800 à 1500m
200 à 500 ft
< 800m
< 200 ft
Symboles :   Orages  Brouillard  Fortes neiges  Fortes précipitations  Vent > 20 kt
SIGMETs :   Divers  Orages  Givrage  Turbulence  Onde Orograph.  Cendres Volcan.







- Altitude de l'aérodrome : 357 ft
- Code IATA : TUF
- Voir les cartes d'approche


LFOT - Tours

DERNIER METAR :
  • 180630Z AUTO 24006KT 9999 -RA FEW008/// BKN060/// OVC072/// ///TCU 18/18 Q1016 TEMPO 2000 RA SCT010CB

METARs EXPIRÉS :
  • 180600Z AUTO 24006KT 8000 -RA FEW009 SCT013 OVC052 18/18 Q1016 TEMPO 2000 RA SCT010CB
  • 180530Z AUTO 24006KT 220V280 9999 -RA FEW006/// SCT011/// BKN029/// ///TCU 19/18 Q1016 TEMPO 2000 RA SCT010CB
  • 180500Z AUTO 22007KT 9999 BKN010 BKN015 OVC047 19/18 Q1016 TEMPO 2000 RA SCT010TCU
  • 180430Z AUTO 21007KT 9999 -RA BKN013/// OVC041/// ///TCU 19/18 Q1016 TEMPO 2000 RA BKN006
  • 180400Z AUTO 20008KT 170V230 7000 -RADZ SCT009/// BKN014/// BKN020/// ///TCU 19/18 Q1016 TEMPO 4000 -RA BKN006

TAF TAF LFOT
Valide du 18 à 06h jusqu'au 19 à 06h UTC


180500Z 1806/1906 22006KT 9999 SCT012 BKN020
TEMPO 1806/1812 4000 -RA BKN006
PROB30
TEMPO 1806/1812 24010G25KT 2000 RA SCT010CB
BECMG 1812/1814 26012G22KT BKN015
BECMG 1814/1817 SCT035
BECMG 1819/1821 27005KT
BECMG 1821/1824 CAVOK
Pas de NOTAMs connus pour ce terrain.



MET'MAP, la Météo Aéronautique d'un coup d'oeil ! - Copyright ORBIFLY Décembre 2007 - Disclaimer

ORBIFLY MET'MAP TEAM :

Programmation & Développement : Alexandra Zaïnal
Conception & Développement : Baudouin d'Aumeries
Co-Programmation & Développement : Marc-Olivier Méhu
Soutien technique & logistique : Manuel Goepfert

Contact : metmap@orbifly.com




SOURCES & CREDITS :

   NOAA